VIE weather

Vienna International Airport
Vienna, Vienna, Austria

Public forecast

Using degrees Celsius for public forecast. Weather courtesy of forecast.io.

METAR (pilot weather report)

Retrieved 2018/01/20 17:50 UTC (34 minutes ago):

LOWW 201750Z 11004KT CAVOK 03/M01 Q1007 NOSIG

TAF (pilot weather forecast)

Retrieved 2018/01/20 18:17 UTC (7 minutes ago):

TAF LOWW 201715Z 2018/2124 15010KT 9999 FEW040 SCT080 TX02/2018Z TNM00/2200Z BECMG 2103/2105 5000 -SN BR SCT012 OVC025 BECMG 2105/2108 33010KT PROB40 TEMPO 2105/2112 2000 SN BR BKN010 OVC020 TEMPO 2112/2115 -RASN BECMG 2115/2117 34015KT 9999 BKN025